createdAt,value
2023-04-28T00:02:02.550Z,67.10
2023-04-28T00:04:29.772Z,67.10
2023-04-28T00:06:57.138Z,67.20
2023-04-28T00:09:24.167Z,67.20
2023-04-28T00:11:51.111Z,67.20
2023-04-28T00:14:18.198Z,67.30
2023-04-28T00:16:45.383Z,67.20
2023-04-28T00:19:12.475Z,67.30
2023-04-28T00:21:39.733Z,67.20
2023-04-28T00:24:07.331Z,67.20
2023-04-28T00:26:34.496Z,67.30
2023-04-28T00:29:01.418Z,67.30
2023-04-28T00:31:28.363Z,67.30
2023-04-28T00:33:55.365Z,67.30
2023-04-28T00:36:22.367Z,67.30
2023-04-28T00:38:49.269Z,67.40
2023-04-28T00:41:16.182Z,67.30
2023-04-28T00:43:50.381Z,67.40
2023-04-28T00:46:25.578Z,67.60
2023-04-28T00:48:53.685Z,67.50
2023-04-28T00:51:21.508Z,67.40
2023-04-28T00:53:48.735Z,67.50
2023-04-28T00:56:15.932Z,67.50
2023-04-28T00:58:43.321Z,67.50
2023-04-28T01:01:11.174Z,67.50
2023-04-28T01:03:40.608Z,67.50
2023-04-28T01:06:09.739Z,67.50
2023-04-28T01:08:39.223Z,67.50
2023-04-28T01:11:14.048Z,67.60
2023-04-28T01:14:01.362Z,67.60
2023-04-28T01:16:32.968Z,68.50
2023-04-28T01:19:00.971Z,67.60
2023-04-28T01:21:32.519Z,67.60
2023-04-28T01:24:06.618Z,67.70
2023-04-28T01:26:33.621Z,67.80
2023-04-28T01:29:01.687Z,67.70
2023-04-28T01:31:31.077Z,67.70
2023-04-28T01:33:58.727Z,67.80
2023-04-28T01:36:28.410Z,67.70
2023-04-28T01:38:55.808Z,67.70
2023-04-28T01:41:22.848Z,67.80
2023-04-28T01:43:49.823Z,67.80
2023-04-28T01:46:17.087Z,67.70
2023-04-28T01:48:44.140Z,67.80
2023-04-28T01:51:12.886Z,67.80
2023-04-28T01:53:40.066Z,67.80
2023-04-28T01:56:07.012Z,67.80
2023-04-28T01:58:35.220Z,68.80
2023-04-28T02:01:02.143Z,67.90
2023-04-28T02:03:29.466Z,67.90
2023-04-28T02:05:56.718Z,67.90
2023-04-28T02:08:23.859Z,67.90
2023-04-28T02:10:52.242Z,67.80
2023-04-28T02:13:19.146Z,67.90
2023-04-28T02:15:46.436Z,67.90
2023-04-28T02:18:13.545Z,67.90
2023-04-28T02:20:40.956Z,68.00
2023-04-28T02:23:08.918Z,68.00
2023-04-28T02:25:35.935Z,68.00
2023-04-28T02:28:04.149Z,68.00
2023-04-28T02:30:34.819Z,68.10
2023-04-28T02:33:01.987Z,68.10
2023-04-28T02:35:28.967Z,68.10
2023-04-28T02:37:56.043Z,68.10
2023-04-28T02:40:23.010Z,68.10
2023-04-28T02:42:50.161Z,68.10
2023-04-28T02:45:17.078Z,68.10
2023-04-28T02:47:44.198Z,68.20
2023-04-28T02:50:11.564Z,68.10
2023-04-28T02:52:38.874Z,68.20
2023-04-28T02:55:06.946Z,68.20
2023-04-28T02:57:34.181Z,68.20
2023-04-28T03:00:01.647Z,68.20
2023-04-28T03:02:35.358Z,68.30
2023-04-28T03:05:02.682Z,68.30
2023-04-28T03:07:29.848Z,68.40
2023-04-28T03:09:56.864Z,68.30
2023-04-28T03:12:23.966Z,68.40
2023-04-28T03:14:50.941Z,68.40
2023-04-28T03:17:18.031Z,68.40
2023-04-28T03:19:45.242Z,68.40
2023-04-28T03:22:12.351Z,68.40
2023-04-28T03:24:39.489Z,68.40
2023-04-28T03:27:06.501Z,68.40
2023-04-28T03:29:33.687Z,68.50
2023-04-28T03:32:01.337Z,68.50
2023-04-28T03:34:28.432Z,68.50
2023-04-28T03:36:55.632Z,68.50
2023-04-28T03:39:27.869Z,68.60
2023-04-28T03:41:54.868Z,68.50
2023-04-28T03:44:36.682Z,68.60
2023-04-28T03:47:04.484Z,68.60
2023-04-28T03:49:31.590Z,68.70
2023-04-28T03:51:59.042Z,68.60
2023-04-28T03:54:26.723Z,68.70
2023-04-28T03:56:54.180Z,68.70
2023-04-28T03:59:21.379Z,68.80
2023-04-28T04:01:49.655Z,68.80
2023-04-28T04:04:17.759Z,68.80
2023-04-28T04:06:46.098Z,68.80
2023-04-28T04:09:13.797Z,68.80
2023-04-28T04:11:41.102Z,68.80
2023-04-28T04:14:08.216Z,68.80
2023-04-28T04:16:36.965Z,68.90
2023-04-28T04:19:06.184Z,68.90
2023-04-28T04:21:41.265Z,68.90
2023-04-28T04:24:08.429Z,69.00
2023-04-28T04:26:35.465Z,69.00
2023-04-28T04:29:07.116Z,69.10
2023-04-28T04:31:34.113Z,69.00
2023-04-28T04:34:01.987Z,69.00
2023-04-28T04:36:29.051Z,69.00
2023-04-28T04:38:56.334Z,69.10
2023-04-28T04:41:23.645Z,69.10
2023-04-28T04:43:58.349Z,69.10
2023-04-28T04:46:30.828Z,69.10
2023-04-28T04:48:58.240Z,69.10
2023-04-28T04:51:26.020Z,69.10
2023-04-28T04:53:53.083Z,69.10
2023-04-28T04:56:20.496Z,69.10
2023-04-28T04:58:47.943Z,69.10
2023-04-28T05:01:50.834Z,69.10
2023-04-28T05:04:18.167Z,69.20
2023-04-28T05:06:45.437Z,69.20
2023-04-28T05:09:12.912Z,69.20
2023-04-28T05:11:40.056Z,69.30
2023-04-28T05:14:07.150Z,69.30
2023-04-28T05:16:34.621Z,69.40
2023-04-28T05:19:23.439Z,69.50
2023-04-28T05:21:52.739Z,69.40
2023-04-28T05:24:23.609Z,69.50
2023-04-28T05:26:52.837Z,69.50
2023-04-28T05:29:21.895Z,69.40
2023-04-28T05:31:49.165Z,69.50
2023-04-28T05:34:17.012Z,70.40
2023-04-28T05:36:45.154Z,69.50
2023-04-28T05:39:13.224Z,69.50
2023-04-28T05:41:41.768Z,70.50
2023-04-28T05:44:09.135Z,69.60
2023-04-28T05:46:37.257Z,69.50
2023-04-28T05:49:04.501Z,69.60
2023-04-28T05:51:35.830Z,69.60
2023-04-28T05:54:03.686Z,69.60
2023-04-28T05:56:33.732Z,69.60
2023-04-28T05:59:04.421Z,70.50
2023-04-28T06:01:32.424Z,69.60
2023-04-28T06:03:59.767Z,69.30
2023-04-28T06:06:27.840Z,68.90
2023-04-28T06:08:55.015Z,68.40
2023-04-28T06:11:22.720Z,68.00
2023-04-28T06:13:51.559Z,67.90
2023-04-28T06:16:19.195Z,67.80
2023-04-28T06:18:49.610Z,67.70
2023-04-28T06:21:17.763Z,67.60
2023-04-28T06:23:44.846Z,67.50
2023-04-28T06:26:12.333Z,67.30
2023-04-28T06:28:40.192Z,67.30
2023-04-28T06:31:09.037Z,67.20
2023-04-28T06:33:36.155Z,67.10
2023-04-28T06:36:04.038Z,66.90
2023-04-28T06:38:31.156Z,67.00
2023-04-28T06:40:58.057Z,66.80
2023-04-28T06:43:28.340Z,66.70
2023-04-28T06:46:09.070Z,66.80
2023-04-28T06:48:36.273Z,66.80
2023-04-28T06:51:03.856Z,66.70
2023-04-28T06:53:31.133Z,66.50
2023-04-28T06:55:59.326Z,66.50
2023-04-28T06:58:28.235Z,66.60
2023-04-28T07:00:55.371Z,66.50
2023-04-28T07:03:22.326Z,66.70
2023-04-28T07:05:49.426Z,66.50
2023-04-28T07:08:17.611Z,66.50
2023-04-28T07:10:44.663Z,66.40
2023-04-28T07:13:11.742Z,66.50
2023-04-28T07:15:39.765Z,66.50
2023-04-28T07:18:07.482Z,66.30
2023-04-28T07:20:34.568Z,66.40
2023-04-28T07:23:01.451Z,66.30
2023-04-28T07:25:28.611Z,66.40
2023-04-28T07:27:55.586Z,66.40
2023-04-28T07:30:27.967Z,66.40
2023-04-28T07:32:56.015Z,66.30
2023-04-28T07:35:23.725Z,66.40
2023-04-28T07:37:51.072Z,66.40
2023-04-28T07:40:19.338Z,66.30
2023-04-28T07:42:47.170Z,66.30
2023-04-28T07:45:16.180Z,66.20
2023-04-28T07:47:43.322Z,66.20
2023-04-28T07:50:12.113Z,67.20
2023-04-28T07:52:39.643Z,66.30
2023-04-28T07:55:07.134Z,66.30
2023-04-28T07:57:34.348Z,66.30
2023-04-28T08:00:01.342Z,66.30
2023-04-28T08:02:28.546Z,66.40
2023-04-28T08:04:55.902Z,66.20
2023-04-28T08:07:23.072Z,66.20
2023-04-28T08:09:52.117Z,66.20
2023-04-28T08:12:20.756Z,66.30
2023-04-28T08:14:48.612Z,66.20
2023-04-28T08:17:16.337Z,66.10
2023-04-28T08:19:46.204Z,66.10
2023-04-28T08:22:13.649Z,66.10
2023-04-28T08:24:40.837Z,66.10
2023-04-28T08:27:08.199Z,66.10
2023-04-28T08:29:35.420Z,66.20
2023-04-28T08:32:02.442Z,66.10
2023-04-28T08:34:29.556Z,66.20
2023-04-28T08:36:56.684Z,66.30
2023-04-28T08:39:23.891Z,66.30
2023-04-28T08:41:51.539Z,66.20
2023-04-28T08:44:19.501Z,66.10
2023-04-28T08:46:49.918Z,66.20
2023-04-28T08:49:19.180Z,66.20
2023-04-28T08:51:52.993Z,66.20
2023-04-28T08:54:26.668Z,66.20
2023-04-28T08:56:55.814Z,66.40
2023-04-28T08:59:22.806Z,66.30
2023-04-28T09:01:50.645Z,66.40
2023-04-28T09:04:20.838Z,66.30
2023-04-28T09:06:48.658Z,66.40
2023-04-28T09:09:26.136Z,66.30
2023-04-28T09:12:01.391Z,66.10
2023-04-28T09:14:34.817Z,66.40
2023-04-28T09:17:13.370Z,66.20
2023-04-28T09:19:43.307Z,66.10
2023-04-28T09:22:23.996Z,66.30
2023-04-28T09:24:53.976Z,66.40
2023-04-28T09:27:28.937Z,66.40
2023-04-28T09:29:56.141Z,66.40
2023-04-28T09:32:24.333Z,66.50
2023-04-28T09:34:54.544Z,66.50
2023-04-28T09:37:24.896Z,66.50
2023-04-28T09:39:54.234Z,66.50
2023-04-28T09:42:42.839Z,66.50
2023-04-28T09:45:14.312Z,66.40
2023-04-28T09:47:47.783Z,66.50
2023-04-28T09:50:18.152Z,66.20
2023-04-28T09:52:57.080Z,66.30
2023-04-28T09:55:25.275Z,66.20
2023-04-28T09:57:55.690Z,66.30
2023-04-28T10:00:23.458Z,66.30
2023-04-28T10:02:52.323Z,66.40
2023-04-28T10:05:21.826Z,66.40
2023-04-28T10:07:49.186Z,66.30
2023-04-28T10:10:16.944Z,66.30
2023-04-28T10:12:44.810Z,66.30
2023-04-28T10:15:13.490Z,66.20
2023-04-28T10:17:40.515Z,66.00
2023-04-28T10:20:09.247Z,66.10
2023-04-28T10:23:17.723Z,66.00
2023-04-28T10:25:50.233Z,65.80
2023-04-28T10:28:17.749Z,66.00
2023-04-28T10:31:15.418Z,65.90
2023-04-28T10:33:43.333Z,65.60
2023-04-28T10:36:10.962Z,65.90
2023-04-28T10:39:14.314Z,65.80
2023-04-28T10:41:41.766Z,65.60
2023-04-28T10:44:30.585Z,65.90
2023-04-28T10:47:04.636Z,65.60
2023-04-28T10:49:57.580Z,65.60
2023-04-28T10:52:34.743Z,65.40
2023-04-28T10:55:28.808Z,65.60
2023-04-28T10:58:15.851Z,65.50
2023-04-28T11:00:45.308Z,66.50
2023-04-28T11:03:46.689Z,65.60
2023-04-28T11:06:29.050Z,65.60
2023-04-28T11:09:32.355Z,65.40
2023-04-28T11:12:10.710Z,65.50
2023-04-28T11:14:40.730Z,65.20
2023-04-28T11:17:13.408Z,65.20
2023-04-28T11:19:45.753Z,65.20
2023-04-28T11:22:23.382Z,65.10
2023-04-28T11:25:00.802Z,65.00
2023-04-28T11:27:33.261Z,65.00
2023-04-28T11:30:01.617Z,65.00
2023-04-28T11:32:36.551Z,65.30
2023-04-28T11:35:04.659Z,64.80
2023-04-28T11:37:31.785Z,65.00
2023-04-28T11:39:58.882Z,65.20
2023-04-28T11:42:27.786Z,65.10
2023-04-28T11:44:56.343Z,65.00
2023-04-28T11:47:33.768Z,65.10
2023-04-28T11:50:02.166Z,64.80
2023-04-28T11:52:29.484Z,65.00
2023-04-28T11:55:00.294Z,65.00
2023-04-28T11:57:27.817Z,65.00
2023-04-28T12:00:12.173Z,65.00
2023-04-28T12:02:39.690Z,65.00
2023-04-28T12:05:07.887Z,65.00
2023-04-28T12:07:45.968Z,64.80
2023-04-28T12:10:17.615Z,64.70
2023-04-28T12:12:51.888Z,64.80
2023-04-28T12:15:22.216Z,65.10
2023-04-28T12:17:50.716Z,65.10
2023-04-28T12:20:38.391Z,65.00
2023-04-28T12:23:06.582Z,65.00
2023-04-28T12:25:35.385Z,65.10
2023-04-28T12:28:05.533Z,65.10
2023-04-28T12:30:35.018Z,65.10
2023-04-28T12:33:02.323Z,65.20
2023-04-28T12:35:30.248Z,65.20
2023-04-28T12:37:58.902Z,65.20
2023-04-28T12:40:26.384Z,65.30
2023-04-28T12:42:54.140Z,65.30
2023-04-28T12:45:21.161Z,65.30
2023-04-28T12:47:48.990Z,65.30
2023-04-28T12:50:16.245Z,65.20
2023-04-28T12:52:45.054Z,65.30
2023-04-28T12:55:12.251Z,65.30
2023-04-28T12:57:39.817Z,65.40
2023-04-28T13:00:08.790Z,65.50
2023-04-28T13:02:36.449Z,65.40
2023-04-28T13:05:03.831Z,65.50
2023-04-28T13:07:30.813Z,65.50
2023-04-28T13:09:58.360Z,65.50
2023-04-28T13:12:26.393Z,65.50
2023-04-28T13:14:53.370Z,65.50
2023-04-28T13:17:20.531Z,65.60
2023-04-28T13:19:47.875Z,65.60
2023-04-28T13:22:15.746Z,65.70
2023-04-28T13:24:42.915Z,65.60
2023-04-28T13:27:10.349Z,65.60
2023-04-28T13:29:37.858Z,65.60
2023-04-28T13:32:06.138Z,65.60
2023-04-28T13:34:33.551Z,65.70
2023-04-28T13:37:00.556Z,65.70
2023-04-28T13:39:27.475Z,65.70
2023-04-28T13:41:54.419Z,65.80
2023-04-28T13:44:21.625Z,65.90
2023-04-28T13:46:48.966Z,66.80
2023-04-28T13:49:16.062Z,66.10
2023-04-28T13:51:43.092Z,66.00
2023-04-28T13:54:11.437Z,66.00
2023-04-28T13:56:38.724Z,66.00
2023-04-28T13:59:05.697Z,67.00
2023-04-28T14:01:32.700Z,66.10
2023-04-28T14:03:59.804Z,66.20
2023-04-28T14:06:27.962Z,66.10
2023-04-28T14:08:55.097Z,66.20
2023-04-28T14:11:22.694Z,66.20
2023-04-28T14:13:49.940Z,66.30
2023-04-28T14:16:17.665Z,66.40
2023-04-28T14:18:44.684Z,66.40
2023-04-28T14:21:11.997Z,66.40
2023-04-28T14:23:39.497Z,66.50
2023-04-28T14:26:07.009Z,66.50
2023-04-28T14:28:34.250Z,66.50
2023-04-28T14:31:06.973Z,66.60
2023-04-28T14:33:34.245Z,66.80
2023-04-28T14:36:05.131Z,66.60
2023-04-28T14:38:32.383Z,66.70
2023-04-28T14:40:59.500Z,66.70
2023-04-28T14:43:26.736Z,66.70
2023-04-28T14:45:53.776Z,66.80
2023-04-28T14:48:20.988Z,66.80
2023-04-28T14:50:48.652Z,66.80
2023-04-28T14:53:15.691Z,66.80
2023-04-28T14:55:54.595Z,66.80
2023-04-28T14:58:28.158Z,66.80
2023-04-28T15:00:59.273Z,66.90
2023-04-28T15:03:30.215Z,66.90
2023-04-28T15:05:57.326Z,67.00
2023-04-28T15:08:24.437Z,67.10
2023-04-28T15:10:51.527Z,67.20
2023-04-28T15:13:18.536Z,67.20
2023-04-28T15:15:45.972Z,67.20
2023-04-28T15:18:12.933Z,67.20
2023-04-28T15:20:39.938Z,67.20
2023-04-28T15:23:06.933Z,67.30
2023-04-28T15:25:33.851Z,67.40
2023-04-28T15:28:00.908Z,67.30
2023-04-28T15:30:27.815Z,67.50
2023-04-28T15:32:54.790Z,67.60
2023-04-28T15:35:22.150Z,67.50
2023-04-28T15:37:52.137Z,67.60
2023-04-28T15:40:19.993Z,67.50
2023-04-28T15:42:52.896Z,67.60
2023-04-28T15:45:22.303Z,67.70
2023-04-28T15:47:50.705Z,67.70
2023-04-28T15:50:19.773Z,67.70
2023-04-28T15:52:49.562Z,67.70
2023-04-28T15:55:19.156Z,67.80
2023-04-28T15:57:47.464Z,67.80
2023-04-28T16:00:15.612Z,67.90
2023-04-28T16:02:43.684Z,68.00
2023-04-28T16:05:11.646Z,67.90
2023-04-28T16:07:41.037Z,68.00
2023-04-28T16:10:12.327Z,68.00
2023-04-28T16:12:40.520Z,68.00
2023-04-28T16:15:10.016Z,68.10
2023-04-28T16:17:38.583Z,68.10
2023-04-28T16:20:08.227Z,68.10
2023-04-28T16:22:36.417Z,68.20
2023-04-28T16:25:04.035Z,68.20
2023-04-28T16:27:31.858Z,68.10
2023-04-28T16:29:59.593Z,68.20
2023-04-28T16:32:27.005Z,68.30
2023-04-28T16:34:56.972Z,68.20
2023-04-28T16:37:23.853Z,68.20
2023-04-28T16:39:51.353Z,68.30
2023-04-28T16:42:20.876Z,68.30
2023-04-28T16:44:47.813Z,68.40
2023-04-28T16:47:15.422Z,68.30
2023-04-28T16:49:42.425Z,68.40
2023-04-28T16:52:09.574Z,68.40
2023-04-28T16:54:36.736Z,68.40
2023-04-28T16:57:04.061Z,68.40
2023-04-28T16:59:31.133Z,68.40
2023-04-28T17:01:59.057Z,68.40
2023-04-28T17:04:27.189Z,68.40
2023-04-28T17:06:54.547Z,68.50
2023-04-28T17:09:22.421Z,68.40
2023-04-28T17:11:50.065Z,68.50
2023-04-28T17:14:17.755Z,68.50
2023-04-28T17:16:44.889Z,68.50
2023-04-28T17:19:12.368Z,68.50
2023-04-28T17:21:39.482Z,68.50
2023-04-28T17:24:06.713Z,68.50
2023-04-28T17:26:33.673Z,68.50
2023-04-28T17:29:01.158Z,68.50
2023-04-28T17:31:29.363Z,68.50
2023-04-28T17:33:59.492Z,68.50
2023-04-28T17:36:27.062Z,68.50
2023-04-28T17:38:57.035Z,68.50
2023-04-28T17:41:24.166Z,68.50
2023-04-28T17:44:11.340Z,68.50
2023-04-28T17:46:38.558Z,69.50
2023-04-28T17:49:05.698Z,68.60
2023-04-28T17:51:32.844Z,68.60
2023-04-28T17:53:59.844Z,68.70
2023-04-28T17:56:27.591Z,68.70
2023-04-28T17:58:55.093Z,68.80
2023-04-28T18:01:22.458Z,68.80
2023-04-28T18:03:49.502Z,68.80
2023-04-28T18:06:16.527Z,68.80
2023-04-28T18:08:43.598Z,68.80
2023-04-28T18:11:11.487Z,68.80
2023-04-28T18:13:38.379Z,68.80
2023-04-28T18:16:05.533Z,68.80
2023-04-28T18:18:35.405Z,68.80
2023-04-28T18:21:02.812Z,68.90
2023-04-28T18:23:30.615Z,68.90
2023-04-28T18:25:57.657Z,68.90
2023-04-28T18:28:24.825Z,68.90
2023-04-28T18:30:51.779Z,68.90
2023-04-28T18:33:20.661Z,68.90
2023-04-28T18:35:58.596Z,68.90
2023-04-28T18:38:26.110Z,69.00
2023-04-28T18:40:53.598Z,68.90
2023-04-28T18:43:21.641Z,69.00
2023-04-28T18:45:48.670Z,69.00
2023-04-28T18:48:15.703Z,69.00
2023-04-28T18:50:42.959Z,69.00
2023-04-28T18:53:11.063Z,69.00
2023-04-28T18:55:38.840Z,69.10
2023-04-28T18:58:06.068Z,69.10
2023-04-28T19:00:37.052Z,69.10
2023-04-28T19:03:04.587Z,69.10
2023-04-28T19:05:31.753Z,69.10
2023-04-28T19:07:58.821Z,69.20
2023-04-28T19:10:25.753Z,69.20
2023-04-28T19:12:52.833Z,69.20
2023-04-28T19:15:19.981Z,70.10
2023-04-28T19:17:47.012Z,69.20
2023-04-28T19:20:14.329Z,69.20
2023-04-28T19:22:41.574Z,69.20
2023-04-28T19:25:09.295Z,69.20
2023-04-28T19:27:41.235Z,69.30
2023-04-28T19:30:11.551Z,69.40
2023-04-28T19:32:40.013Z,69.30
2023-04-28T19:35:08.110Z,69.30
2023-04-28T19:37:35.725Z,69.30
2023-04-28T19:40:07.205Z,69.30
2023-04-28T19:42:37.226Z,69.30
2023-04-28T19:45:05.231Z,69.30
2023-04-28T19:47:35.370Z,69.30
2023-04-28T19:50:02.560Z,69.20
2023-04-28T19:52:29.901Z,69.30
2023-04-28T19:54:57.257Z,69.30
2023-04-28T19:57:24.221Z,69.30
2023-04-28T19:59:51.472Z,69.30
2023-04-28T20:02:19.161Z,69.30
2023-04-28T20:04:47.524Z,69.30
2023-04-28T20:07:14.799Z,69.30
2023-04-28T20:09:42.861Z,69.30
2023-04-28T20:12:10.501Z,69.40
2023-04-28T20:14:37.528Z,69.40
2023-04-28T20:17:07.356Z,69.30
2023-04-28T20:19:35.125Z,69.40
2023-04-28T20:22:08.447Z,69.60
2023-04-28T20:24:36.616Z,69.40
2023-04-28T20:27:04.135Z,69.40
2023-04-28T20:29:34.559Z,69.40
2023-04-28T20:32:02.607Z,69.40
2023-04-28T20:34:32.701Z,69.40
2023-04-28T20:37:03.562Z,69.40
2023-04-28T20:39:30.712Z,69.40
2023-04-28T20:41:59.382Z,69.40
2023-04-28T20:44:26.657Z,70.30
2023-04-28T20:46:53.764Z,69.40
2023-04-28T20:49:20.787Z,69.40
2023-04-28T20:51:47.874Z,69.40
2023-04-28T20:54:15.185Z,69.40
2023-04-28T20:56:42.890Z,69.40
2023-04-28T20:59:10.042Z,69.40
2023-04-28T21:01:37.027Z,69.40
2023-04-28T21:04:04.236Z,69.40
2023-04-28T21:06:31.287Z,69.40
2023-04-28T21:08:58.258Z,69.40
2023-04-28T21:11:25.655Z,69.40
2023-04-28T21:13:52.824Z,69.40
2023-04-28T21:16:21.705Z,69.40
2023-04-28T21:18:49.805Z,70.30
2023-04-28T21:21:17.199Z,69.50
2023-04-28T21:23:44.290Z,70.30
2023-04-28T21:26:11.580Z,69.50
2023-04-28T21:28:39.880Z,69.50
2023-04-28T21:31:07.156Z,69.50
2023-04-28T21:33:34.261Z,69.50
2023-04-28T21:36:07.315Z,69.60
2023-04-28T21:38:35.275Z,69.70
2023-04-28T21:41:02.580Z,69.60
2023-04-28T21:43:29.583Z,69.60
2023-04-28T21:45:56.686Z,69.60
2023-04-28T21:48:23.726Z,69.70
2023-04-28T21:50:50.717Z,69.70
2023-04-28T21:53:17.747Z,70.60
2023-04-28T21:55:44.932Z,69.70
2023-04-28T21:58:12.317Z,69.70
2023-04-28T22:00:44.276Z,70.60
2023-04-28T22:03:12.231Z,69.80
2023-04-28T22:05:41.200Z,69.70
2023-04-28T22:08:08.392Z,69.80
2023-04-28T22:10:36.396Z,69.70
2023-04-28T22:13:03.986Z,69.80
2023-04-28T22:15:30.956Z,69.70
2023-04-28T22:17:58.242Z,69.80
2023-04-28T22:20:25.271Z,69.80
2023-04-28T22:22:52.471Z,69.80
2023-04-28T22:25:19.741Z,70.70
2023-04-28T22:27:46.867Z,69.80
2023-04-28T22:30:14.222Z,69.90
2023-04-28T22:32:44.623Z,69.80
2023-04-28T22:35:16.449Z,69.80
2023-04-28T22:37:43.775Z,69.80
2023-04-28T22:40:11.189Z,69.80
2023-04-28T22:42:40.293Z,69.80
2023-04-28T22:45:09.806Z,69.90
2023-04-28T22:47:38.782Z,69.90
2023-04-28T22:50:08.328Z,69.80
2023-04-28T22:52:35.832Z,69.90
2023-04-28T22:55:03.468Z,69.80
2023-04-28T22:57:30.599Z,69.90
2023-04-28T22:59:57.470Z,69.90
2023-04-28T23:02:24.887Z,69.90
2023-04-28T23:04:52.177Z,69.80
2023-04-28T23:07:19.188Z,69.80
2023-04-28T23:09:46.211Z,69.90
2023-04-28T23:12:13.274Z,69.80
2023-04-28T23:14:40.256Z,69.80
2023-04-28T23:17:07.247Z,69.90
2023-04-28T23:19:39.246Z,70.80
2023-04-28T23:22:08.023Z,69.90
2023-04-28T23:24:37.087Z,69.90
2023-04-28T23:27:04.943Z,69.90
2023-04-28T23:29:32.572Z,69.90
2023-04-28T23:31:59.672Z,69.80
2023-04-28T23:34:27.165Z,69.90
2023-04-28T23:36:54.163Z,69.80
2023-04-28T23:39:21.224Z,69.90
2023-04-28T23:41:48.244Z,69.80
2023-04-28T23:44:15.468Z,69.80
2023-04-28T23:46:42.690Z,69.90
2023-04-28T23:49:10.228Z,69.80
2023-04-28T23:51:37.231Z,69.90
2023-04-28T23:54:04.206Z,69.80
2023-04-28T23:56:31.557Z,69.90
2023-04-28T23:58:58.500Z,70.00
